createdAt,value
2018-12-05T00:00:26.218Z,8.90
2018-12-05T00:02:55.082Z,9.20
2018-12-05T00:05:23.954Z,9.20
2018-12-05T00:07:52.997Z,9.20
2018-12-05T00:10:21.872Z,9.30
2018-12-05T00:12:50.805Z,9.30
2018-12-05T00:15:19.665Z,9.40
2018-12-05T00:17:48.514Z,9.40
2018-12-05T00:20:17.405Z,9.40
2018-12-05T00:22:46.341Z,9.30
2018-12-05T00:25:15.190Z,9.30
2018-12-05T00:27:44.044Z,9.40
2018-12-05T00:30:12.939Z,9.30
2018-12-05T00:32:41.792Z,9.30
2018-12-05T00:35:10.641Z,9.20
2018-12-05T00:37:39.512Z,9.10
2018-12-05T00:40:08.376Z,9.20
2018-12-05T00:42:37.240Z,9.00
2018-12-05T00:45:06.258Z,9.10
2018-12-05T00:47:35.107Z,9.20
2018-12-05T00:50:04.657Z,9.10
2018-12-05T00:52:33.524Z,9.20
2018-12-05T00:55:02.465Z,9.30
2018-12-05T00:57:31.346Z,9.00
2018-12-05T01:00:00.240Z,9.00
2018-12-05T01:02:29.107Z,9.00
2018-12-05T01:04:57.975Z,9.10
2018-12-05T01:07:26.979Z,9.20
2018-12-05T01:09:55.875Z,9.30
2018-12-05T01:12:24.771Z,9.20
2018-12-05T01:14:53.639Z,9.30
2018-12-05T01:17:22.580Z,9.30
2018-12-05T01:19:52.542Z,9.10
2018-12-05T01:22:21.450Z,9.10
2018-12-05T01:24:50.330Z,9.20
2018-12-05T01:27:19.316Z,9.20
2018-12-05T01:29:48.240Z,9.10
2018-12-05T01:32:17.154Z,9.20
2018-12-05T01:34:45.993Z,9.20
2018-12-05T01:37:14.930Z,9.30
2018-12-05T01:39:44.103Z,9.20
2018-12-05T01:42:13.033Z,9.10
2018-12-05T01:44:41.985Z,9.00
2018-12-05T01:47:10.945Z,8.90
2018-12-05T01:49:39.901Z,8.90
2018-12-05T01:52:08.793Z,9.00
2018-12-05T01:54:37.791Z,9.10
2018-12-05T01:57:06.646Z,8.90
2018-12-05T01:59:35.539Z,9.00
2018-12-05T02:02:04.566Z,8.80
2018-12-05T02:04:33.474Z,8.90
2018-12-05T02:07:02.488Z,9.00
2018-12-05T02:09:31.510Z,9.10
2018-12-05T02:12:00.546Z,9.10
2018-12-05T02:14:29.518Z,9.10
2018-12-05T02:16:58.483Z,9.10
2018-12-05T02:19:27.412Z,9.10
2018-12-05T02:21:56.279Z,9.10
2018-12-05T02:24:25.159Z,9.10
2018-12-05T02:26:54.078Z,8.80
2018-12-05T02:29:24.963Z,8.80
2018-12-05T02:31:54.022Z,8.80
2018-12-05T02:34:22.893Z,8.80
2018-12-05T02:36:51.794Z,8.70
2018-12-05T02:39:20.778Z,8.80
2018-12-05T02:41:49.667Z,8.70
2018-12-05T02:44:18.591Z,8.70
2018-12-05T02:46:47.551Z,8.70
2018-12-05T02:49:16.449Z,8.60
2018-12-05T02:51:45.338Z,8.60
2018-12-05T02:54:14.193Z,8.70
2018-12-05T02:56:43.122Z,8.60
2018-12-05T02:59:12.008Z,8.50
2018-12-05T03:01:40.871Z,8.60
2018-12-05T03:04:09.778Z,8.70
2018-12-05T03:06:38.674Z,8.80
2018-12-05T03:09:08.226Z,8.70
2018-12-05T03:11:37.311Z,8.70
2018-12-05T03:14:06.254Z,8.60
2018-12-05T03:16:35.232Z,8.50
2018-12-05T03:19:04.198Z,8.60
2018-12-05T03:21:33.129Z,8.50
2018-12-05T03:24:02.075Z,8.70
2018-12-05T03:26:31.042Z,8.80
2018-12-05T03:28:59.926Z,8.70
2018-12-05T03:31:28.829Z,8.80
2018-12-05T03:33:57.787Z,8.70
2018-12-05T03:36:26.664Z,8.60
2018-12-05T03:38:55.580Z,8.70
2018-12-05T03:41:24.685Z,8.80
2018-12-05T03:43:53.575Z,8.60
2018-12-05T03:46:22.439Z,8.70
2018-12-05T03:48:51.351Z,8.70
2018-12-05T03:51:20.260Z,8.70
2018-12-05T03:53:49.150Z,8.70
2018-12-05T03:56:17.997Z,8.80
2018-12-05T03:58:46.934Z,8.70
2018-12-05T04:01:15.793Z,8.60
2018-12-05T04:03:44.719Z,8.60
2018-12-05T04:06:13.778Z,8.70
2018-12-05T04:08:42.793Z,8.60
2018-12-05T04:11:11.758Z,8.60
2018-12-05T04:13:40.995Z,8.30
2018-12-05T04:16:10.046Z,8.30
2018-12-05T04:18:38.950Z,8.30
2018-12-05T04:21:07.805Z,8.30
2018-12-05T04:23:36.768Z,8.40
2018-12-05T04:26:05.831Z,8.50
2018-12-05T04:28:34.837Z,8.50
2018-12-05T04:31:03.742Z,8.50
2018-12-05T04:33:32.719Z,8.50
2018-12-05T04:36:01.585Z,8.40
2018-12-05T04:38:30.579Z,8.40
2018-12-05T04:40:59.476Z,8.50
2018-12-05T04:43:28.384Z,8.50
2018-12-05T04:45:57.587Z,8.50
2018-12-05T04:48:26.598Z,8.70
2018-12-05T04:50:55.544Z,8.50
2018-12-05T04:53:24.442Z,8.50
2018-12-05T04:55:53.330Z,8.30
2018-12-05T04:58:22.253Z,8.40
2018-12-05T05:00:51.211Z,8.40
2018-12-05T05:03:20.112Z,8.40
2018-12-05T05:05:49.003Z,8.30
2018-12-05T05:08:17.941Z,8.40
2018-12-05T05:10:46.913Z,8.30
2018-12-05T05:13:15.885Z,8.30
2018-12-05T05:15:44.768Z,8.50
2018-12-05T05:18:13.634Z,8.30
2018-12-05T05:20:42.524Z,8.20
2018-12-05T05:23:11.423Z,8.00
2018-12-05T05:25:40.416Z,8.00
2018-12-05T05:28:09.531Z,8.00
2018-12-05T05:30:38.470Z,8.10
2018-12-05T05:33:07.417Z,8.30
2018-12-05T05:35:36.317Z,8.20
2018-12-05T05:38:05.225Z,8.20
2018-12-05T05:40:34.233Z,8.30
2018-12-05T05:43:03.207Z,8.30
2018-12-05T05:45:32.221Z,8.40
2018-12-05T05:48:01.129Z,8.40
2018-12-05T05:50:30.055Z,8.30
2018-12-05T05:52:59.041Z,8.20
2018-12-05T05:55:27.967Z,8.30
2018-12-05T05:57:56.789Z,8.30
2018-12-05T06:00:25.757Z,8.20
2018-12-05T06:02:54.693Z,8.20
2018-12-05T06:05:23.638Z,8.30
2018-12-05T06:07:52.598Z,8.30
2018-12-05T06:10:21.562Z,8.20
2018-12-05T06:12:50.714Z,8.20
2018-12-05T06:15:19.690Z,8.20
2018-12-05T06:17:48.550Z,8.20
2018-12-05T06:20:17.473Z,8.20
2018-12-05T06:22:46.442Z,8.00
2018-12-05T06:25:15.359Z,8.20
2018-12-05T06:27:44.227Z,8.20
2018-12-05T06:30:13.242Z,8.20
2018-12-05T06:32:42.106Z,8.10
2018-12-05T06:35:11.904Z,8.20
2018-12-05T06:37:40.817Z,8.20
2018-12-05T06:40:10.404Z,8.10
2018-12-05T06:42:39.943Z,8.00
2018-12-05T06:45:08.950Z,8.30
2018-12-05T06:47:37.929Z,8.30
2018-12-05T06:50:07.840Z,8.30
2018-12-05T06:52:38.069Z,8.50
2018-12-05T06:55:07.803Z,8.30
2018-12-05T06:57:36.770Z,8.30
2018-12-05T07:00:08.160Z,8.20
2018-12-05T07:02:37.350Z,8.10
2018-12-05T07:05:07.245Z,8.30
2018-12-05T07:12:26.122Z,8.20
2018-12-05T07:14:55.106Z,8.10
2018-12-05T07:17:23.984Z,8.30
2018-12-05T07:19:52.890Z,8.20
2018-12-05T07:22:22.805Z,8.20
2018-12-05T07:24:51.698Z,8.30
2018-12-05T07:27:20.687Z,8.30
2018-12-05T07:29:49.625Z,8.20
2018-12-05T07:32:18.564Z,8.30
2018-12-05T07:34:47.442Z,8.40
2018-12-05T07:37:16.362Z,8.40
2018-12-05T07:39:45.335Z,8.40
2018-12-05T07:42:14.237Z,8.30
2018-12-05T07:44:43.230Z,8.40
2018-12-05T07:47:12.254Z,8.30
2018-12-05T07:49:41.195Z,8.50
2018-12-05T07:52:10.107Z,8.50
2018-12-05T07:54:39.125Z,8.50
2018-12-05T07:57:08.093Z,8.60
2018-12-05T07:59:37.060Z,8.50
2018-12-05T08:02:06.178Z,8.50
2018-12-05T08:04:35.086Z,8.40
2018-12-05T08:07:04.084Z,8.40
2018-12-05T08:09:33.038Z,8.10
2018-12-05T08:12:02.968Z,8.10
2018-12-05T08:14:32.046Z,8.20
2018-12-05T08:17:01.394Z,8.30
2018-12-05T08:19:30.330Z,8.30
2018-12-05T08:21:59.554Z,8.30
2018-12-05T08:24:28.422Z,8.40
2018-12-05T08:26:57.313Z,8.30
2018-12-05T08:29:26.218Z,8.40
2018-12-05T08:46:47.703Z,8.30
2018-12-05T08:49:16.645Z,8.10
2018-12-05T08:51:45.619Z,8.10
2018-12-05T08:54:20.901Z,8.20
2018-12-05T08:56:45.490Z,8.30
2018-12-05T08:59:14.438Z,8.30
2018-12-05T09:01:43.424Z,8.10
2018-12-05T09:04:12.311Z,8.30
2018-12-05T09:06:41.211Z,8.50
2018-12-05T09:09:10.098Z,8.40
2018-12-05T09:11:39.010Z,8.60
2018-12-05T09:14:07.950Z,8.60
2018-12-05T09:16:36.870Z,8.50
2018-12-05T09:19:05.887Z,8.50
2018-12-05T09:21:34.906Z,8.60
2018-12-05T09:24:04.984Z,8.70
2018-12-05T09:26:33.916Z,8.60
2018-12-05T09:29:02.773Z,8.70
2018-12-05T09:31:31.670Z,8.60
2018-12-05T09:34:00.514Z,8.80
2018-12-05T09:36:29.384Z,8.80
2018-12-05T09:38:58.233Z,8.80
2018-12-05T09:41:27.090Z,8.80
2018-12-05T09:43:56.345Z,8.90
2018-12-05T09:46:25.215Z,8.90
2018-12-05T09:48:54.400Z,9.20
2018-12-05T09:51:23.278Z,9.10
2018-12-05T09:53:52.146Z,9.30
2018-12-05T09:56:22.035Z,9.20
2018-12-05T09:58:50.893Z,9.20
2018-12-05T10:01:20.102Z,9.20
2018-12-05T10:03:48.978Z,9.10
2018-12-05T10:06:17.842Z,9.10
2018-12-05T10:08:46.721Z,9.10
2018-12-05T10:11:15.577Z,9.20
2018-12-05T10:13:44.434Z,9.30
2018-12-05T10:16:14.342Z,9.20
2018-12-05T10:18:43.197Z,9.30
2018-12-05T10:21:12.050Z,9.30
2018-12-05T10:23:40.918Z,9.40
2018-12-05T10:26:09.780Z,9.50
2018-12-05T10:28:38.618Z,9.50
2018-12-05T10:31:07.569Z,9.40
2018-12-05T10:33:36.430Z,9.40
2018-12-05T10:36:05.306Z,9.50
2018-12-05T10:38:34.256Z,9.50
2018-12-05T10:41:03.307Z,9.50
2018-12-05T10:43:32.250Z,9.50
2018-12-05T10:46:01.126Z,9.60
2018-12-05T10:48:29.980Z,9.70
2018-12-05T10:50:58.861Z,9.70
2018-12-05T10:53:27.765Z,9.80
2018-12-05T10:55:56.599Z,9.60
2018-12-05T10:58:25.490Z,9.90
2018-12-05T11:00:59.666Z,9.90
2018-12-05T11:03:35.240Z,9.90
2018-12-05T11:06:11.143Z,9.70
2018-12-05T11:08:46.402Z,9.70
2018-12-05T11:11:20.746Z,9.90
2018-12-05T11:13:55.113Z,9.80
2018-12-05T11:16:29.478Z,9.60
2018-12-05T11:19:03.800Z,9.80
2018-12-05T11:21:38.118Z,10.00
2018-12-05T11:24:14.204Z,9.90
2018-12-05T11:26:43.263Z,9.90
2018-12-05T11:29:12.100Z,10.10
2018-12-05T11:31:41.065Z,10.20
2018-12-05T11:34:09.937Z,9.80
2018-12-05T11:36:38.771Z,9.80
2018-12-05T11:39:08.374Z,9.90
2018-12-05T11:41:37.226Z,10.20
2018-12-05T11:44:06.149Z,10.10
2018-12-05T11:46:35.215Z,9.70
2018-12-05T11:49:04.340Z,9.50
2018-12-05T11:51:33.194Z,9.50
2018-12-05T11:54:02.055Z,9.60
2018-12-05T11:56:31.002Z,9.80
2018-12-05T11:58:59.987Z,9.90
2018-12-05T12:01:28.969Z,9.80
2018-12-05T12:03:58.226Z,9.60
2018-12-05T12:06:27.170Z,9.90
2018-12-05T12:08:56.163Z,10.10
2018-12-05T12:11:25.344Z,10.00
2018-12-05T12:13:54.222Z,10.20
2018-12-05T12:16:23.114Z,10.10
2018-12-05T12:18:51.967Z,9.90
2018-12-05T12:21:21.005Z,9.90
2018-12-05T12:23:49.982Z,9.80
2018-12-05T12:26:19.023Z,9.90
2018-12-05T12:28:47.902Z,9.80
2018-12-05T12:31:16.733Z,9.80
2018-12-05T12:33:45.663Z,9.90
2018-12-05T12:36:14.487Z,9.80
2018-12-05T12:38:43.588Z,9.50
2018-12-05T12:41:12.482Z,10.00
2018-12-05T12:43:41.382Z,10.20
2018-12-05T12:46:10.233Z,10.50
2018-12-05T12:48:39.524Z,10.50
2018-12-05T12:51:08.562Z,10.10
2018-12-05T12:53:37.656Z,10.30
2018-12-05T12:56:06.650Z,10.30
2018-12-05T12:58:35.534Z,10.60
2018-12-05T13:01:04.420Z,10.40
2018-12-05T13:03:33.322Z,10.10
2018-12-05T13:06:02.163Z,10.00
2018-12-05T13:08:31.017Z,10.00
2018-12-05T13:11:00.039Z,10.20
2018-12-05T13:13:28.935Z,10.10
2018-12-05T13:15:57.786Z,10.40
2018-12-05T13:18:26.666Z,10.50
2018-12-05T13:20:55.559Z,10.60
2018-12-05T13:23:24.430Z,10.70
2018-12-05T13:25:53.320Z,10.70
2018-12-05T13:28:22.284Z,10.80
2018-12-05T13:30:51.146Z,10.80
2018-12-05T13:33:20.056Z,10.80
2018-12-05T13:35:49.034Z,10.60
2018-12-05T13:38:17.902Z,10.50
2018-12-05T13:40:47.089Z,10.50
2018-12-05T13:43:16.131Z,10.50
2018-12-05T13:45:45.109Z,10.50
2018-12-05T13:48:14.065Z,10.40
2018-12-05T13:50:42.939Z,10.50
2018-12-05T13:53:11.804Z,10.60
2018-12-05T13:55:40.669Z,10.30
2018-12-05T13:58:09.547Z,10.20
2018-12-05T14:00:38.417Z,10.10
2018-12-05T14:03:07.277Z,10.00
2018-12-05T14:05:36.147Z,9.90
2018-12-05T14:08:05.188Z,10.00
2018-12-05T14:10:34.086Z,10.20
2018-12-05T14:13:03.054Z,10.30
2018-12-05T14:15:31.995Z,10.50
2018-12-05T14:18:02.343Z,10.60
2018-12-05T14:20:31.998Z,10.60
2018-12-05T14:23:00.943Z,10.60
2018-12-05T14:25:29.937Z,10.40
2018-12-05T14:27:58.770Z,10.30
2018-12-05T14:30:27.719Z,10.30
2018-12-05T14:32:56.539Z,10.20
2018-12-05T14:35:25.536Z,10.20
2018-12-05T14:37:54.409Z,10.30
2018-12-05T14:40:23.309Z,10.30
2018-12-05T14:42:52.147Z,10.30
2018-12-05T14:45:21.062Z,10.30
2018-12-05T14:47:49.955Z,10.30
2018-12-05T14:50:18.826Z,10.30
2018-12-05T14:52:47.670Z,10.30
2018-12-05T14:55:16.693Z,10.30
2018-12-05T14:57:45.615Z,10.30
2018-12-05T15:00:14.487Z,10.20
2018-12-05T15:02:43.329Z,10.20
2018-12-05T15:05:12.239Z,10.20
2018-12-05T15:07:41.133Z,10.20
2018-12-05T15:10:10.073Z,10.30
2018-12-05T15:12:38.951Z,10.30
2018-12-05T15:15:08.013Z,10.20
2018-12-05T15:17:36.916Z,10.20
2018-12-05T15:20:05.788Z,10.20
2018-12-05T15:22:34.683Z,10.20
2018-12-05T15:25:03.675Z,10.20
2018-12-05T15:27:32.831Z,10.20
2018-12-05T15:30:01.756Z,10.20
2018-12-05T15:32:30.630Z,10.20
2018-12-05T15:34:59.528Z,10.10
2018-12-05T15:37:28.447Z,10.20
2018-12-05T15:39:57.412Z,10.10
2018-12-05T15:42:26.293Z,10.20
2018-12-05T15:44:55.196Z,10.30
2018-12-05T15:47:24.086Z,10.30
2018-12-05T15:49:52.980Z,10.20
2018-12-05T15:52:22.054Z,10.20
2018-12-05T15:54:50.934Z,10.20
2018-12-05T15:57:19.917Z,10.10
2018-12-05T15:59:49.166Z,10.10
2018-12-05T16:02:18.021Z,10.10
2018-12-05T16:04:46.907Z,10.10
2018-12-05T16:07:15.772Z,10.20
2018-12-05T16:09:44.671Z,10.20
2018-12-05T16:12:13.542Z,10.20
2018-12-05T16:14:42.427Z,10.10
2018-12-05T16:17:11.445Z,10.10
2018-12-05T16:19:40.342Z,10.10
2018-12-05T16:22:09.257Z,10.10
2018-12-05T16:24:38.104Z,10.10
2018-12-05T16:27:06.995Z,10.00
2018-12-05T16:29:35.934Z,10.00
2018-12-05T16:32:04.823Z,10.00
2018-12-05T16:34:33.825Z,10.10
2018-12-05T16:37:02.786Z,10.10
2018-12-05T16:39:31.827Z,10.10
2018-12-05T16:42:00.825Z,10.20
2018-12-05T16:44:29.761Z,10.00
2018-12-05T16:46:58.661Z,10.00
2018-12-05T16:49:27.510Z,10.10
2018-12-05T16:51:56.427Z,10.10
2018-12-05T16:54:25.599Z,10.10
2018-12-05T16:56:54.501Z,10.10
2018-12-05T16:59:23.389Z,10.10
2018-12-05T17:01:52.254Z,10.10
2018-12-05T17:04:21.128Z,10.10
2018-12-05T17:06:51.074Z,10.10
2018-12-05T17:09:25.995Z,10.10
2018-12-05T17:11:50.829Z,10.00
2018-12-05T17:14:20.310Z,10.10
2018-12-05T17:16:49.246Z,10.10
2018-12-05T17:19:18.104Z,10.00
2018-12-05T17:21:47.091Z,10.00
2018-12-05T17:24:18.245Z,10.00
2018-12-05T17:26:47.103Z,10.00
2018-12-05T17:29:16.718Z,9.90
2018-12-05T17:31:46.645Z,10.00
2018-12-05T17:34:16.533Z,10.00
2018-12-05T17:36:47.613Z,10.00
2018-12-05T17:39:17.507Z,10.00
2018-12-05T17:41:46.439Z,10.00
2018-12-05T17:44:15.578Z,9.90
2018-12-05T17:46:48.208Z,9.90
2018-12-05T17:49:17.098Z,9.90
2018-12-05T17:51:46.043Z,9.90
2018-12-05T17:54:15.193Z,10.00
2018-12-05T17:56:44.129Z,10.00
2018-12-05T17:59:13.037Z,9.90
2018-12-05T18:01:42.235Z,9.90
2018-12-05T18:04:11.230Z,9.80
2018-12-05T18:06:40.111Z,9.90
2018-12-05T18:09:09.301Z,9.90
2018-12-05T18:11:38.674Z,9.80
2018-12-05T18:14:07.649Z,9.80
2018-12-05T18:16:36.624Z,9.90
2018-12-05T18:19:05.830Z,9.80
2018-12-05T18:21:34.853Z,9.80
2018-12-05T18:24:05.342Z,9.70
2018-12-05T18:26:34.343Z,9.60
2018-12-05T18:29:03.446Z,9.80
2018-12-05T18:31:33.344Z,9.80
2018-12-05T18:34:03.925Z,9.90
2018-12-05T18:36:33.892Z,9.90
2018-12-05T18:39:03.174Z,9.80
2018-12-05T18:41:32.049Z,9.80
2018-12-05T18:44:00.905Z,9.90
2018-12-05T18:46:29.794Z,9.80
2018-12-05T18:48:58.695Z,9.80
2018-12-05T18:51:27.590Z,9.60
2018-12-05T18:53:56.482Z,9.70
2018-12-05T18:56:25.623Z,9.80
2018-12-05T18:58:54.613Z,9.80
2018-12-05T19:01:23.449Z,9.80
2018-12-05T19:03:52.859Z,9.80
2018-12-05T19:06:21.801Z,9.80
2018-12-05T19:08:50.801Z,9.60
2018-12-05T19:11:20.543Z,9.80
2018-12-05T19:13:54.975Z,9.80
2018-12-05T19:16:23.905Z,9.80
2018-12-05T19:18:52.753Z,9.80
2018-12-05T19:21:21.698Z,9.80
2018-12-05T19:23:50.545Z,9.80
2018-12-05T19:26:19.463Z,9.90
2018-12-05T19:28:48.338Z,9.90
2018-12-05T19:31:19.431Z,9.80
2018-12-05T19:33:48.069Z,9.80
2018-12-05T19:36:16.963Z,9.80
2018-12-05T19:38:45.821Z,9.80
2018-12-05T19:41:14.712Z,9.90
2018-12-05T19:43:43.556Z,9.80
2018-12-05T19:46:12.680Z,9.70
2018-12-05T19:48:44.427Z,9.80
2018-12-05T19:51:13.466Z,9.80
2018-12-05T19:53:42.328Z,9.70
2018-12-05T19:56:12.102Z,9.70
2018-12-05T19:58:40.960Z,9.70
2018-12-05T20:01:09.837Z,9.70
2018-12-05T20:03:38.861Z,9.80
2018-12-05T20:06:07.705Z,9.80
2018-12-05T20:08:36.638Z,9.70
2018-12-05T20:11:07.846Z,9.80
2018-12-05T20:13:39.872Z,9.60
2018-12-05T20:16:08.781Z,9.80
2018-12-05T20:18:37.666Z,9.70
2018-12-05T20:21:06.668Z,9.70
2018-12-05T20:23:35.572Z,9.70
2018-12-05T20:26:04.565Z,9.80
2018-12-05T20:28:33.460Z,9.70
2018-12-05T20:31:02.334Z,9.80
2018-12-05T20:33:31.988Z,9.90
2018-12-05T20:36:00.886Z,9.80
2018-12-05T20:38:29.838Z,9.90
2018-12-05T20:40:59.115Z,9.90
2018-12-05T20:43:27.993Z,9.80
2018-12-05T20:45:56.913Z,9.60
2018-12-05T20:48:26.181Z,9.70
2018-12-05T20:50:55.186Z,9.70
2018-12-05T20:53:24.140Z,9.50
2018-12-05T20:55:53.217Z,9.50
2018-12-05T20:58:22.209Z,9.60
2018-12-05T21:00:51.150Z,9.50
2018-12-05T21:03:20.076Z,9.30
2018-12-05T21:05:49.010Z,9.20
2018-12-05T21:08:18.171Z,9.40
2018-12-05T21:10:47.121Z,9.40
2018-12-05T21:13:16.051Z,9.60
2018-12-05T21:15:45.002Z,9.70
2018-12-05T21:18:14.074Z,9.80
2018-12-05T21:20:43.182Z,9.80
2018-12-05T21:23:12.215Z,9.60
2018-12-05T21:25:41.209Z,9.50
2018-12-05T21:28:10.264Z,9.30
2018-12-05T21:30:39.333Z,9.20
2018-12-05T21:33:08.293Z,9.20
2018-12-05T21:35:37.296Z,9.30
2018-12-05T21:38:06.256Z,9.40
2018-12-05T21:40:35.212Z,9.40
2018-12-05T21:43:04.079Z,9.50
2018-12-05T21:45:33.002Z,9.70
2018-12-05T21:48:01.983Z,9.50
2018-12-05T21:50:30.896Z,9.30
2018-12-05T21:52:59.745Z,9.20
2018-12-05T21:55:28.618Z,9.20
2018-12-05T21:57:57.755Z,9.10
2018-12-05T22:00:26.819Z,9.10
2018-12-05T22:02:55.702Z,9.10
2018-12-05T22:05:24.557Z,9.10
2018-12-05T22:07:53.426Z,9.20
2018-12-05T22:10:22.266Z,9.10
2018-12-05T22:12:51.153Z,9.00
2018-12-05T22:15:20.993Z,9.10
2018-12-05T22:17:49.916Z,9.30
2018-12-05T22:20:18.724Z,9.40
2018-12-05T22:22:47.635Z,9.50
2018-12-05T22:25:16.474Z,9.50
2018-12-05T22:27:45.366Z,9.60
2018-12-05T22:30:14.223Z,9.70
2018-12-05T22:32:43.181Z,9.70
2018-12-05T22:35:12.282Z,9.60
2018-12-05T22:37:41.250Z,9.60
2018-12-05T22:40:10.411Z,9.70
2018-12-05T22:42:39.300Z,9.50
2018-12-05T22:45:08.542Z,9.60
2018-12-05T22:47:37.403Z,9.50
2018-12-05T22:50:07.460Z,9.40
2018-12-05T22:52:36.367Z,9.60
2018-12-05T22:55:05.358Z,9.80
2018-12-05T22:57:34.241Z,10.00
2018-12-05T23:00:03.340Z,9.90
2018-12-05T23:02:32.222Z,9.80
2018-12-05T23:05:01.113Z,9.70
2018-12-05T23:07:29.983Z,9.80
2018-12-05T23:09:59.185Z,10.00
2018-12-05T23:12:28.261Z,10.20
2018-12-05T23:14:57.145Z,10.10
2018-12-05T23:17:25.993Z,10.30
2018-12-05T23:19:54.881Z,9.90
2018-12-05T23:22:23.761Z,9.90
2018-12-05T23:24:52.594Z,9.70
2018-12-05T23:27:21.473Z,9.50
2018-12-05T23:29:50.336Z,9.40
2018-12-05T23:32:19.180Z,9.60
2018-12-05T23:34:48.188Z,9.80
2018-12-05T23:37:16.991Z,9.80
2018-12-05T23:39:45.861Z,9.80
2018-12-05T23:42:14.698Z,9.70
2018-12-05T23:44:43.575Z,9.90
2018-12-05T23:47:13.439Z,9.80
2018-12-05T23:49:44.190Z,9.80
2018-12-05T23:52:13.090Z,9.80
2018-12-05T23:54:42.012Z,10.00
2018-12-05T23:57:10.890Z,9.80
2018-12-05T23:59:39.795Z,9.90
